< < Back
Terminal Aerodrome Forecast


Current Version              Previous Versions:   1  2  3  4  5  6  7  8  9  

Terminal Aerodrome Forecast

209
FTUS42 KCHS 011420 AAB
TAFSAV
TAF AMD
KSAV 011420Z 0114/0212 32006KT 4SM -RA FEW015 BKN100
     FM011500 34007KT P6SM SCT050 BKN100
     FM012000 08009KT P6SM SCT018 BKN040
     FM020300 04005KT P6SM SCT010 BKN035=

Latest METAR

880
SAUS80 KWBC 011800 RRJ
MTRSAV
METAR KSAV 011753Z 31008KT 10SM FEW045 SCT120 SCT250 24/13 A3006 RMK AO2
SLP177 60002 T02390128 10244 20144 58000


USA.gov is the U.S. government's official web portal to all federal, state and local government web resources and services.